createdAt,value
2023-03-07T00:01:40.242Z,98279.91
2023-03-07T00:04:06.791Z,98280.69
2023-03-07T00:06:33.316Z,98280.91
2023-03-07T00:09:02.068Z,98283.84
2023-03-07T00:11:29.628Z,98278.50
2023-03-07T00:13:56.251Z,98280.63
2023-03-07T00:16:24.436Z,98268.59
2023-03-07T00:18:51.334Z,98275.31
2023-03-07T00:21:21.364Z,98269.97
2023-03-07T00:23:49.020Z,98272.13
2023-03-07T00:26:18.649Z,98265.97
2023-03-07T00:28:50.417Z,98258.25
2023-03-07T00:31:18.168Z,98263.59
2023-03-07T00:33:44.987Z,98253.47
2023-03-07T00:36:14.543Z,98260.41
2023-03-07T00:38:42.315Z,98262.00
2023-03-07T00:41:12.038Z,98255.06
2023-03-07T00:43:38.888Z,98249.16
2023-03-07T00:46:06.447Z,98249.94
2023-03-07T00:48:35.132Z,98247.00
2023-03-07T00:51:02.037Z,98249.13
2023-03-07T00:53:28.743Z,98239.53
2023-03-07T00:56:02.650Z,98232.59
2023-03-07T00:58:31.349Z,98224.06
2023-03-07T01:00:58.719Z,98235.53
2023-03-07T01:03:26.152Z,98222.47
2023-03-07T01:05:54.616Z,98218.47
2023-03-07T01:08:22.298Z,98221.44
2023-03-07T01:10:49.561Z,98218.22
2023-03-07T01:13:18.376Z,98216.09
2023-03-07T01:15:44.958Z,98216.59
2023-03-07T01:18:11.670Z,98213.13
2023-03-07T01:20:39.707Z,98201.66
2023-03-07T01:23:06.466Z,98203.25
2023-03-07T01:25:37.956Z,98198.19
2023-03-07T01:28:04.627Z,98198.69
2023-03-07T01:30:31.319Z,98191.22
2023-03-07T01:32:59.365Z,98185.03
2023-03-07T01:35:27.151Z,98186.63
2023-03-07T01:37:54.702Z,98186.06
2023-03-07T01:40:22.966Z,98185.81
2023-03-07T01:42:49.823Z,98185.53
2023-03-07T01:45:16.355Z,98186.03
2023-03-07T01:47:46.370Z,98182.53
2023-03-07T01:50:16.624Z,98169.19
2023-03-07T01:52:47.571Z,98167.31
2023-03-07T01:55:28.020Z,98164.09
2023-03-07T01:57:56.717Z,98168.09
2023-03-07T02:00:28.818Z,98162.50
2023-03-07T02:03:10.185Z,98158.25
2023-03-07T02:05:41.042Z,98152.09
2023-03-07T02:08:11.569Z,98150.22
2023-03-07T02:10:40.443Z,98138.47
2023-03-07T02:13:07.772Z,98140.28
2023-03-07T02:15:35.256Z,98145.63
2023-03-07T02:18:02.584Z,98137.84
2023-03-07T02:20:44.308Z,98140.53
2023-03-07T02:23:26.359Z,98143.47
2023-03-07T02:25:52.755Z,98143.81
2023-03-07T02:28:19.364Z,98143.75
2023-03-07T02:31:03.120Z,98134.94
2023-03-07T02:33:29.809Z,98129.84
2023-03-07T02:36:00.482Z,98135.19
2023-03-07T02:38:27.815Z,98122.84
2023-03-07T02:40:55.536Z,98121.22
2023-03-07T02:43:22.987Z,98127.88
2023-03-07T02:45:49.680Z,98127.88
2023-03-07T02:48:16.257Z,98126.53
2023-03-07T02:50:42.824Z,98127.03
2023-03-07T02:53:09.347Z,98123.28
2023-03-07T02:55:36.063Z,98120.09
2023-03-07T02:58:02.697Z,98120.88
2023-03-07T03:00:29.321Z,98116.34
2023-03-07T03:02:55.919Z,98122.22
2023-03-07T03:05:22.511Z,98116.88
2023-03-07T03:07:49.016Z,98119.53
2023-03-07T03:10:16.187Z,98121.69
2023-03-07T03:12:43.372Z,98113.38
2023-03-07T03:15:10.866Z,98109.38
2023-03-07T03:17:37.433Z,98110.44
2023-03-07T03:20:07.586Z,98106.69
2023-03-07T03:22:34.180Z,98114.13
2023-03-07T03:25:00.721Z,98100.78
2023-03-07T03:27:27.202Z,98097.03
2023-03-07T03:29:54.990Z,98088.44
2023-03-07T03:32:21.542Z,98086.84
2023-03-07T03:34:48.063Z,98091.69
2023-03-07T03:37:14.601Z,98088.50
2023-03-07T03:39:41.280Z,98095.44
2023-03-07T03:42:08.262Z,98084.19
2023-03-07T03:44:34.819Z,98077.25
2023-03-07T03:47:02.322Z,98085.25
2023-03-07T03:49:28.864Z,98073.50
2023-03-07T03:51:55.386Z,98077.25
2023-03-07T03:54:21.932Z,98072.72
2023-03-07T03:56:48.489Z,98075.66
2023-03-07T03:59:15.194Z,98071.91
2023-03-07T04:01:41.932Z,98067.38
2023-03-07T04:04:08.537Z,98061.22
2023-03-07T04:06:35.642Z,98061.22
2023-03-07T04:09:04.820Z,98068.44
2023-03-07T04:11:32.271Z,98057.22
2023-03-07T04:13:59.440Z,98058.03
2023-03-07T04:16:26.134Z,98050.28
2023-03-07T04:18:52.847Z,98057.00
2023-03-07T04:21:20.426Z,98055.41
2023-03-07T04:23:49.664Z,98054.91
2023-03-07T04:26:16.767Z,98052.81
2023-03-07T04:28:43.976Z,98053.06
2023-03-07T04:31:14.747Z,98048.81
2023-03-07T04:33:42.302Z,98040.53
2023-03-07T04:36:09.614Z,98035.47
2023-03-07T04:38:38.202Z,98037.31
2023-03-07T04:41:08.837Z,98036.81
2023-03-07T04:43:35.363Z,98036.28
2023-03-07T04:46:02.032Z,98033.13
2023-03-07T04:48:28.605Z,98036.88
2023-03-07T04:50:55.240Z,98033.19
2023-03-07T04:53:22.464Z,98036.63
2023-03-07T04:55:49.103Z,98032.09
2023-03-07T04:58:15.686Z,98032.09
2023-03-07T05:00:43.110Z,98029.16
2023-03-07T05:03:11.334Z,98032.91
2023-03-07T05:05:38.280Z,98027.84
2023-03-07T05:08:05.829Z,98029.69
2023-03-07T05:10:33.689Z,98023.06
2023-03-07T05:13:00.737Z,98023.06
2023-03-07T05:15:27.477Z,98020.38
2023-03-07T05:17:54.055Z,98025.16
2023-03-07T05:20:21.147Z,98024.09
2023-03-07T05:22:47.805Z,98029.94
2023-03-07T05:25:14.569Z,98021.97
2023-03-07T05:27:41.260Z,98015.06
2023-03-07T05:30:08.612Z,98016.41
2023-03-07T05:32:35.244Z,98014.03
2023-03-07T05:35:02.094Z,98015.31
2023-03-07T05:37:28.640Z,98013.47
2023-03-07T05:39:55.175Z,98005.72
2023-03-07T05:42:21.735Z,98011.06
2023-03-07T05:44:48.312Z,98008.69
2023-03-07T05:47:14.879Z,98003.34
2023-03-07T05:49:41.647Z,98004.44
2023-03-07T05:52:08.380Z,98009.22
2023-03-07T05:54:34.911Z,98003.88
2023-03-07T05:57:01.454Z,98002.19
2023-03-07T05:59:28.022Z,97992.88
2023-03-07T06:01:54.560Z,97987.34
2023-03-07T06:04:21.071Z,97991.22
2023-03-07T06:06:47.584Z,97987.34
2023-03-07T06:09:14.159Z,97989.31
2023-03-07T06:11:40.749Z,97991.88
2023-03-07T06:14:07.304Z,97982.56
2023-03-07T06:16:33.868Z,97985.16
2023-03-07T06:19:00.558Z,97983.19
2023-03-07T06:21:27.105Z,97986.16
2023-03-07T06:23:53.621Z,97978.28
2023-03-07T06:26:20.155Z,97976.69
2023-03-07T06:28:46.688Z,97981.38
2023-03-07T06:31:15.777Z,97970.81
2023-03-07T06:33:43.339Z,97972.53
2023-03-07T06:36:12.887Z,97973.38
2023-03-07T06:38:39.467Z,97982.78
2023-03-07T06:41:06.512Z,97973.22
2023-03-07T06:43:33.064Z,97974.00
2023-03-07T06:46:00.207Z,97971.63
2023-03-07T06:48:26.799Z,97971.09
2023-03-07T06:50:53.485Z,97969.53
2023-03-07T06:53:20.379Z,97960.72
2023-03-07T06:55:50.963Z,97951.06
2023-03-07T06:58:17.953Z,97961.44
2023-03-07T07:00:45.124Z,97952.88
2023-03-07T07:03:15.472Z,97959.50
2023-03-07T07:05:42.077Z,97954.41
2023-03-07T07:08:09.258Z,97965.31
2023-03-07T07:10:36.132Z,97969.78
2023-03-07T07:13:03.599Z,97966.53
2023-03-07T07:15:31.260Z,97962.75
2023-03-07T07:17:57.784Z,97963.19
2023-03-07T07:20:24.380Z,97973.00
2023-03-07T07:22:50.952Z,97960.34
2023-03-07T07:25:17.706Z,97968.84
2023-03-07T07:27:44.349Z,97970.94
2023-03-07T07:30:11.459Z,97976.78
2023-03-07T07:32:38.178Z,97973.84
2023-03-07T07:35:05.471Z,97978.38
2023-03-07T07:37:32.143Z,97978.09
2023-03-07T07:39:58.680Z,97988.25
2023-03-07T07:42:25.260Z,97981.53
2023-03-07T07:44:51.813Z,97976.78
2023-03-07T07:47:18.328Z,97985.88
2023-03-07T07:49:44.851Z,97988.06
2023-03-07T07:52:11.793Z,97985.97
2023-03-07T07:54:38.328Z,97981.47
2023-03-07T07:57:04.919Z,97970.28
2023-03-07T07:59:34.138Z,97969.97
2023-03-07T08:02:01.699Z,97971.00
2023-03-07T08:04:28.344Z,97975.25
2023-03-07T08:06:55.266Z,97962.31
2023-03-07T08:09:21.821Z,97959.56
2023-03-07T08:11:48.573Z,97954.59
2023-03-07T08:14:15.204Z,97958.19
2023-03-07T08:16:42.119Z,97950.09
2023-03-07T08:19:08.843Z,97943.28
2023-03-07T08:21:35.372Z,97949.78
2023-03-07T08:24:02.507Z,97944.00
2023-03-07T08:26:29.098Z,97931.53
2023-03-07T08:28:55.811Z,97926.38
2023-03-07T08:31:24.404Z,97935.94
2023-03-07T08:33:51.473Z,97933.16
2023-03-07T08:36:18.981Z,97931.75
2023-03-07T08:38:51.638Z,97936.72
2023-03-07T08:41:19.633Z,97930.72
2023-03-07T08:43:46.224Z,97923.06
2023-03-07T08:46:13.224Z,97936.34
2023-03-07T08:48:40.191Z,97935.69
2023-03-07T08:51:08.794Z,97938.75
2023-03-07T08:53:35.468Z,97927.66
2023-03-07T08:56:06.657Z,97927.81
2023-03-07T08:58:33.235Z,97917.69
2023-03-07T09:00:59.791Z,97924.84
2023-03-07T09:03:26.340Z,97913.91
2023-03-07T09:05:52.921Z,97930.78
2023-03-07T09:08:19.479Z,97920.22
2023-03-07T09:10:46.214Z,97915.56
2023-03-07T09:13:14.123Z,97916.75
2023-03-07T09:15:41.700Z,97908.28
2023-03-07T09:18:09.072Z,97906.22
2023-03-07T09:20:37.345Z,97907.31
2023-03-07T09:23:04.232Z,97909.38
2023-03-07T09:25:30.909Z,97926.94
2023-03-07T09:27:57.457Z,97929.22
2023-03-07T09:30:25.385Z,97920.59
2023-03-07T09:32:52.257Z,97916.16
2023-03-07T09:35:18.875Z,97944.22
2023-03-07T09:37:45.456Z,97921.56
2023-03-07T09:40:18.228Z,97920.00
2023-03-07T09:43:11.476Z,97923.28
2023-03-07T09:45:46.507Z,97915.59
2023-03-07T09:48:25.405Z,97905.72
2023-03-07T09:50:59.338Z,97907.94
2023-03-07T09:53:55.995Z,97905.38
2023-03-07T09:56:48.533Z,97894.56
2023-03-07T09:59:25.721Z,97896.31
2023-03-07T10:02:16.073Z,97896.59
2023-03-07T10:04:51.994Z,97895.69
2023-03-07T10:07:23.344Z,97895.38
2023-03-07T10:09:55.611Z,97899.81
2023-03-07T10:12:36.297Z,97895.59
2023-03-07T10:15:35.429Z,97897.94
2023-03-07T10:18:04.535Z,97895.41
2023-03-07T10:20:53.459Z,97929.47
2023-03-07T10:23:24.972Z,97903.25
2023-03-07T10:26:02.301Z,97913.78
2023-03-07T10:28:35.377Z,97911.31
2023-03-07T10:31:25.921Z,97914.00
2023-03-07T10:33:54.612Z,97904.28
2023-03-07T10:36:36.602Z,97911.81
2023-03-07T10:39:29.124Z,97918.66
2023-03-07T10:41:56.933Z,97935.47
2023-03-07T10:44:23.759Z,97903.47
2023-03-07T10:46:57.537Z,97913.25
2023-03-07T10:49:28.403Z,97907.50
2023-03-07T10:52:03.776Z,97907.50
2023-03-07T10:54:35.942Z,97907.63
2023-03-07T10:57:08.009Z,97913.91
2023-03-07T10:59:35.041Z,97922.94
2023-03-07T11:02:03.102Z,97908.94
2023-03-07T11:04:44.322Z,97907.44
2023-03-07T11:07:28.645Z,97910.16
2023-03-07T11:09:57.311Z,97913.34
2023-03-07T11:12:26.296Z,97925.84
2023-03-07T11:14:54.408Z,97917.13
2023-03-07T11:17:31.715Z,97929.38
2023-03-07T11:19:58.355Z,97921.44
2023-03-07T11:22:25.149Z,97918.13
2023-03-07T11:24:56.842Z,97915.47
2023-03-07T11:27:45.345Z,97911.19
2023-03-07T11:30:35.725Z,97908.09
2023-03-07T11:33:11.706Z,97914.88
2023-03-07T11:35:52.499Z,97903.06
2023-03-07T11:38:34.461Z,97891.09
2023-03-07T11:41:09.689Z,97884.75
2023-03-07T11:43:41.953Z,97880.00
2023-03-07T11:47:10.296Z,97872.47
2023-03-07T11:49:44.556Z,97874.44
2023-03-07T11:52:35.781Z,97859.91
2023-03-07T11:55:19.356Z,97857.22
2023-03-07T11:58:23.430Z,97850.00
2023-03-07T12:00:59.057Z,97855.97
2023-03-07T12:03:47.400Z,97846.84
2023-03-07T12:06:23.820Z,97839.84
2023-03-07T12:08:56.845Z,97844.53
2023-03-07T12:11:54.218Z,97845.66
2023-03-07T12:14:42.051Z,97840.25
2023-03-07T12:17:38.052Z,97828.91
2023-03-07T12:20:13.739Z,97824.63
2023-03-07T12:23:06.405Z,97830.03
2023-03-07T12:25:41.600Z,97837.00
2023-03-07T12:28:32.589Z,97831.63
2023-03-07T12:31:15.241Z,97825.59
2023-03-07T12:33:54.213Z,97813.41
2023-03-07T12:36:20.706Z,97826.22
2023-03-07T12:38:54.715Z,97829.38
2023-03-07T12:41:43.255Z,97819.59
2023-03-07T12:44:28.902Z,97810.09
2023-03-07T12:47:03.578Z,97813.63
2023-03-07T12:49:49.113Z,97809.66
2023-03-07T12:52:28.782Z,97810.75
2023-03-07T12:54:59.792Z,97821.66
2023-03-07T12:57:36.182Z,97820.22
2023-03-07T13:00:08.353Z,97819.56
2023-03-07T13:02:43.628Z,97830.47
2023-03-07T13:05:20.562Z,97837.88
2023-03-07T13:07:49.262Z,97849.69
2023-03-07T13:10:20.574Z,97851.16
2023-03-07T13:12:48.462Z,97846.22
2023-03-07T13:15:17.810Z,97848.31
2023-03-07T13:17:44.578Z,97859.69
2023-03-07T13:20:19.977Z,97843.31
2023-03-07T13:22:46.521Z,97838.50
2023-03-07T13:25:27.166Z,97838.56
2023-03-07T13:27:59.356Z,97839.84
2023-03-07T13:30:30.183Z,97827.97
2023-03-07T13:33:07.145Z,97819.47
2023-03-07T13:35:33.701Z,97829.91
2023-03-07T13:38:00.309Z,97840.34
2023-03-07T13:40:49.759Z,97837.81
2023-03-07T13:43:19.360Z,97845.56
2023-03-07T13:46:00.145Z,97843.03
2023-03-07T13:48:26.698Z,97838.28
2023-03-07T13:50:53.745Z,97840.63
2023-03-07T13:57:18.573Z,97836.22
2023-03-07T13:59:49.999Z,97836.72
2023-03-07T14:02:18.403Z,97840.50
2023-03-07T14:04:54.326Z,97841.75
2023-03-07T14:07:26.617Z,97847.75
2023-03-07T14:10:21.416Z,97840.63
2023-03-07T14:13:18.496Z,97851.25
2023-03-07T14:16:04.968Z,97833.88
2023-03-07T14:19:09.456Z,97821.22
2023-03-07T14:21:55.247Z,97830.56
2023-03-07T14:24:49.555Z,97834.66
2023-03-07T14:27:16.803Z,97837.34
2023-03-07T14:29:54.668Z,97832.78
2023-03-07T14:32:22.782Z,97834.66
2023-03-07T14:34:49.356Z,97824.88
2023-03-07T14:37:27.349Z,97844.31
2023-03-07T14:40:09.309Z,97816.19
2023-03-07T14:43:00.866Z,97812.50
2023-03-07T14:45:40.016Z,97813.31
2023-03-07T14:48:30.497Z,97814.25
2023-03-07T14:51:05.955Z,97820.13
2023-03-07T14:53:34.709Z,97821.41
2023-03-07T14:56:01.606Z,97821.41
2023-03-07T14:58:32.431Z,97829.00
2023-03-07T15:00:58.970Z,97821.56
2023-03-07T15:03:25.672Z,97823.44
2023-03-07T15:05:55.768Z,97814.56
2023-03-07T15:08:23.941Z,97815.84
2023-03-07T15:11:22.579Z,97811.22
2023-03-07T15:13:55.084Z,97819.75
2023-03-07T15:16:26.895Z,97816.13
2023-03-07T15:19:05.626Z,97816.75
2023-03-07T15:21:40.333Z,97824.97
2023-03-07T15:24:18.109Z,97821.44
2023-03-07T15:26:53.329Z,97817.50
2023-03-07T15:29:25.703Z,97827.91
2023-03-07T15:32:02.850Z,97820.78
2023-03-07T15:34:33.744Z,97828.38
2023-03-07T15:37:23.351Z,97824.88
2023-03-07T15:40:23.157Z,97811.16
2023-03-07T15:42:55.707Z,97817.78
2023-03-07T15:45:40.859Z,97817.16
2023-03-07T15:48:34.884Z,97798.47
2023-03-07T15:51:06.434Z,97804.91
2023-03-07T15:53:41.459Z,97803.94
2023-03-07T15:56:24.572Z,97805.34
2023-03-07T15:58:56.515Z,97809.94
2023-03-07T16:01:25.717Z,97794.78
2023-03-07T16:04:01.179Z,97808.09
2023-03-07T16:06:32.130Z,97814.47
2023-03-07T16:08:59.095Z,97813.66
2023-03-07T16:11:25.594Z,97805.91
2023-03-07T16:13:52.144Z,97818.25
2023-03-07T16:16:24.054Z,97813.66
2023-03-07T16:18:51.870Z,97819.66
2023-03-07T16:21:20.071Z,97822.66
2023-03-07T16:23:47.239Z,97815.56
2023-03-07T16:26:17.396Z,97824.59
2023-03-07T16:28:44.399Z,97825.50
2023-03-07T16:31:12.486Z,97821.84
2023-03-07T16:33:39.397Z,97824.81
2023-03-07T16:36:06.297Z,97822.75
2023-03-07T16:38:32.859Z,97827.94
2023-03-07T16:41:03.648Z,97832.53
2023-03-07T16:43:38.299Z,97833.94
2023-03-07T16:46:17.769Z,97830.13
2023-03-07T16:48:45.075Z,97849.25
2023-03-07T16:51:20.985Z,97850.31
2023-03-07T16:53:49.327Z,97852.63
2023-03-07T16:56:26.346Z,97857.53
2023-03-07T16:58:53.582Z,97856.53
2023-03-07T17:01:20.173Z,97848.63
2023-03-07T17:03:46.721Z,97850.34
2023-03-07T17:06:16.354Z,97853.63
2023-03-07T17:08:44.415Z,97851.09
2023-03-07T17:11:24.303Z,97853.28
2023-03-07T17:13:57.509Z,97851.69
2023-03-07T17:16:25.718Z,97856.56
2023-03-07T17:18:52.459Z,97864.25
2023-03-07T17:21:21.571Z,97860.28
2023-03-07T17:23:49.302Z,97855.72
2023-03-07T17:26:35.376Z,97876.69
2023-03-07T17:29:07.031Z,97874.00
2023-03-07T17:31:33.674Z,97854.13
2023-03-07T17:34:00.195Z,97882.56
2023-03-07T17:36:26.876Z,97881.94
2023-03-07T17:38:53.420Z,97881.66
2023-03-07T17:41:19.991Z,97882.75
2023-03-07T17:43:46.530Z,97891.91
2023-03-07T17:46:13.147Z,97890.13
2023-03-07T17:48:39.710Z,97888.53
2023-03-07T17:51:10.501Z,97884.88
2023-03-07T17:53:38.333Z,97892.91
2023-03-07T17:56:13.281Z,97890.84
2023-03-07T17:58:41.050Z,97895.13
2023-03-07T18:01:08.443Z,97902.56
2023-03-07T18:03:35.292Z,97901.47
2023-03-07T18:06:03.706Z,97907.31
2023-03-07T18:08:30.732Z,97905.41
2023-03-07T18:11:03.487Z,97905.41
2023-03-07T18:13:30.084Z,97903.03
2023-03-07T18:15:57.512Z,97898.16
2023-03-07T18:18:24.515Z,97910.97
2023-03-07T18:21:02.806Z,97897.06
2023-03-07T18:23:29.417Z,97895.97
2023-03-07T18:26:06.987Z,97903.41
2023-03-07T18:28:35.056Z,97900.22
2023-03-07T18:31:10.700Z,97892.38
2023-03-07T18:33:38.296Z,97899.63
2023-03-07T18:36:08.194Z,97900.44
2023-03-07T18:38:34.996Z,97884.94
2023-03-07T18:41:04.463Z,97898.03
2023-03-07T18:43:30.967Z,97884.44
2023-03-07T18:45:57.707Z,97903.22
2023-03-07T18:48:24.252Z,97910.19
2023-03-07T18:51:02.964Z,97901.34
2023-03-07T18:53:29.892Z,97900.22
2023-03-07T18:55:56.573Z,97898.66
2023-03-07T18:58:23.405Z,97904.00
2023-03-07T19:00:50.034Z,97900.84
2023-03-07T19:03:16.688Z,97900.03
2023-03-07T19:05:45.825Z,97904.44
2023-03-07T19:08:13.396Z,97916.47
2023-03-07T19:10:40.021Z,97918.34
2023-03-07T19:13:07.317Z,97912.19
2023-03-07T19:15:34.741Z,97919.91
2023-03-07T19:18:01.768Z,97916.94
2023-03-07T19:20:28.431Z,97928.28
2023-03-07T19:22:54.970Z,97921.34
2023-03-07T19:25:22.026Z,97939.63
2023-03-07T19:27:48.590Z,97924.16
2023-03-07T19:30:15.375Z,97930.56
2023-03-07T19:32:41.975Z,97932.28
2023-03-07T19:35:08.688Z,97928.34
2023-03-07T19:37:36.633Z,97941.44
2023-03-07T19:40:03.432Z,97940.44
2023-03-07T19:42:29.970Z,97937.28
2023-03-07T19:44:56.629Z,97935.69
2023-03-07T19:47:23.346Z,97946.44
2023-03-07T19:49:49.854Z,97951.31
2023-03-07T19:52:16.524Z,97942.75
2023-03-07T19:54:43.085Z,97953.97
2023-03-07T19:57:11.750Z,97966.28
2023-03-07T19:59:38.250Z,97962.31
2023-03-07T20:02:05.107Z,97977.63
2023-03-07T20:04:31.636Z,97985.97
2023-03-07T20:06:58.180Z,97982.59
2023-03-07T20:09:24.706Z,97980.72
2023-03-07T20:11:51.725Z,97985.28
2023-03-07T20:14:18.341Z,97990.16
2023-03-07T20:16:44.887Z,97990.94
2023-03-07T20:19:11.517Z,97987.47
2023-03-07T20:21:38.155Z,97981.81
2023-03-07T20:24:05.264Z,97975.63
2023-03-07T20:26:34.906Z,97985.59
2023-03-07T20:29:03.085Z,97983.41
2023-03-07T20:31:30.119Z,97992.22
2023-03-07T20:33:59.199Z,97992.22
2023-03-07T20:36:31.493Z,97999.00
2023-03-07T20:39:00.544Z,97995.13
2023-03-07T20:41:32.060Z,97996.31
2023-03-07T20:44:02.375Z,98005.47
2023-03-07T20:46:30.437Z,98003.88
2023-03-07T20:48:58.421Z,97994.03
2023-03-07T20:51:27.879Z,97992.94
2023-03-07T20:54:02.328Z,97990.25
2023-03-07T20:56:31.265Z,97986.28
2023-03-07T20:58:58.605Z,97987.38
2023-03-07T21:01:27.852Z,97982.00
2023-03-07T21:03:55.157Z,97987.38
2023-03-07T21:06:22.215Z,97995.41
2023-03-07T21:08:48.955Z,97994.31
2023-03-07T21:11:19.210Z,97978.72
2023-03-07T21:13:48.205Z,97980.63
2023-03-07T21:16:18.022Z,97987.78
2023-03-07T21:18:45.426Z,97982.13
2023-03-07T21:21:17.793Z,97977.25
2023-03-07T21:23:44.787Z,97993.34
2023-03-07T21:26:14.280Z,97979.91
2023-03-07T21:28:41.441Z,97979.63
2023-03-07T21:31:13.493Z,97985.59
2023-03-07T21:33:45.540Z,97990.38
2023-03-07T21:36:14.371Z,97993.16
2023-03-07T21:38:41.971Z,98000.88
2023-03-07T21:41:08.599Z,98002.47
2023-03-07T21:43:35.488Z,98004.06
2023-03-07T21:46:10.761Z,98006.44
2023-03-07T21:48:37.389Z,98005.84
2023-03-07T21:51:04.904Z,97998.91
2023-03-07T21:53:32.023Z,98000.50
2023-03-07T21:56:03.663Z,97991.34
2023-03-07T21:58:31.064Z,98005.84
2023-03-07T22:00:58.832Z,97999.38
2023-03-07T22:03:27.282Z,97997.81
2023-03-07T22:05:56.251Z,97991.94
2023-03-07T22:08:23.686Z,97974.28
2023-03-07T22:11:00.539Z,97975.16
2023-03-07T22:13:28.264Z,97985.13
2023-03-07T22:15:59.597Z,97991.56
2023-03-07T22:18:26.592Z,97988.56
2023-03-07T22:20:53.237Z,97986.69
2023-03-07T22:23:19.865Z,97987.78
2023-03-07T22:25:46.413Z,97999.78
2023-03-07T22:28:16.589Z,98008.81
2023-03-07T22:30:43.212Z,98003.97
2023-03-07T22:33:09.777Z,98016.56
2023-03-07T22:35:36.402Z,98002.88
2023-03-07T22:38:03.014Z,98009.03
2023-03-07T22:40:29.510Z,98005.25
2023-03-07T22:42:56.066Z,98009.34
2023-03-07T22:45:22.578Z,98011.22
2023-03-07T22:47:49.088Z,98010.59
2023-03-07T22:50:15.947Z,98002.56
2023-03-07T22:52:42.466Z,98005.75
2023-03-07T22:55:09.354Z,98014.59
2023-03-07T22:57:35.910Z,98003.06
2023-03-07T23:00:03.056Z,98007.44
2023-03-07T23:02:29.585Z,98007.44
2023-03-07T23:04:56.111Z,98003.66
2023-03-07T23:07:22.717Z,97990.75
2023-03-07T23:09:49.293Z,97993.75
2023-03-07T23:12:15.917Z,97997.19
2023-03-07T23:14:42.455Z,98003.66
2023-03-07T23:17:09.225Z,97990.03
2023-03-07T23:19:35.755Z,97997.91
2023-03-07T23:22:02.261Z,97987.78
2023-03-07T23:24:28.800Z,98005.03
2023-03-07T23:26:55.396Z,98008.31
2023-03-07T23:29:22.463Z,97999.78
2023-03-07T23:31:49.182Z,97993.84
2023-03-07T23:34:18.762Z,97986.09
2023-03-07T23:36:46.002Z,97982.44
2023-03-07T23:39:12.911Z,97974.56
2023-03-07T23:41:39.824Z,97976.66
2023-03-07T23:44:06.387Z,97983.91
2023-03-07T23:46:33.109Z,97979.34
2023-03-07T23:48:59.710Z,97973.47
2023-03-07T23:51:26.782Z,97969.72
2023-03-07T23:53:53.411Z,97968.72
2023-03-07T23:56:19.997Z,97982.13
2023-03-07T23:58:52.929Z,97971.19
